sensor_id;sensor_type;location;lat;lon;timestamp;P1;durP1;ratioP1;P2;durP2;ratioP2
47772;SDS011;33534;51.028;13.716;2023-01-01T00:01:36;20.33;;;10.98;;
47772;SDS011;33534;51.028;13.716;2023-01-01T00:04:04;13.23;;;8.35;;
47772;SDS011;33534;51.028;13.716;2023-01-01T00:06:31;15.38;;;8.77;;
47772;SDS011;33534;51.028;13.716;2023-01-01T00:08:57;13.18;;;7.70;;
47772;SDS011;33534;51.028;13.716;2023-01-01T00:11:42;24.33;;;12.98;;
47772;SDS011;33534;51.028;13.716;2023-01-01T00:14:08;11.30;;;7.20;;
47772;SDS011;33534;51.028;13.716;2023-01-01T00:16:34;10.90;;;5.70;;
47772;SDS011;33534;51.028;13.716;2023-01-01T00:19:00;7.88;;;5.63;;
47772;SDS011;33534;51.028;13.716;2023-01-01T00:21:26;11.23;;;7.65;;
47772;SDS011;33534;51.028;13.716;2023-01-01T00:23:52;9.95;;;5.97;;
47772;SDS011;33534;51.028;13.716;2023-01-01T00:26:18;12.30;;;8.00;;
47772;SDS011;33534;51.028;13.716;2023-01-01T00:28:44;11.95;;;6.65;;
47772;SDS011;33534;51.028;13.716;2023-01-01T00:31:15;8.00;;;5.28;;
47772;SDS011;33534;51.028;13.716;2023-01-01T00:33:42;14.48;;;7.60;;
47772;SDS011;33534;51.028;13.716;2023-01-01T00:36:08;9.52;;;5.65;;
47772;SDS011;33534;51.028;13.716;2023-01-01T00:38:34;8.70;;;5.75;;
47772;SDS011;33534;51.028;13.716;2023-01-01T00:41:01;7.20;;;4.47;;
47772;SDS011;33534;51.028;13.716;2023-01-01T00:43:27;5.55;;;3.95;;
47772;SDS011;33534;51.028;13.716;2023-01-01T00:45:53;6.32;;;4.65;;
47772;SDS011;33534;51.028;13.716;2023-01-01T00:48:19;7.60;;;4.63;;
47772;SDS011;33534;51.028;13.716;2023-01-01T00:50:46;8.15;;;5.72;;
47772;SDS011;33534;51.028;13.716;2023-01-01T00:53:12;5.93;;;4.30;;
47772;SDS011;33534;51.028;13.716;2023-01-01T00:55:39;10.13;;;6.15;;
47772;SDS011;33534;51.028;13.716;2023-01-01T00:58:05;4.60;;;3.67;;
47772;SDS011;33534;51.028;13.716;2023-01-01T01:00:31;7.07;;;3.92;;
47772;SDS011;33534;51.028;13.716;2023-01-01T01:02:57;6.22;;;4.72;;
47772;SDS011;33534;51.028;13.716;2023-01-01T01:05:23;7.35;;;3.80;;
47772;SDS011;33534;51.028;13.716;2023-01-01T01:07:49;5.28;;;4.03;;
47772;SDS011;33534;51.028;13.716;2023-01-01T01:10:15;8.55;;;4.13;;
47772;SDS011;33534;51.028;13.716;2023-01-01T01:12:41;7.25;;;4.07;;
47772;SDS011;33534;51.028;13.716;2023-01-01T01:15:08;7.28;;;4.43;;
47772;SDS011;33534;51.028;13.716;2023-01-01T01:17:34;8.15;;;3.70;;
47772;SDS011;33534;51.028;13.716;2023-01-01T01:20:00;8.23;;;4.65;;
47772;SDS011;33534;51.028;13.716;2023-01-01T01:22:26;5.40;;;3.65;;
47772;SDS011;33534;51.028;13.716;2023-01-01T01:24:52;5.20;;;3.85;;
47772;SDS011;33534;51.028;13.716;2023-01-01T01:27:18;10.10;;;4.88;;
47772;SDS011;33534;51.028;13.716;2023-01-01T01:29:44;6.72;;;4.85;;
47772;SDS011;33534;51.028;13.716;2023-01-01T01:32:11;5.93;;;3.83;;
47772;SDS011;33534;51.028;13.716;2023-01-01T01:34:37;5.20;;;3.60;;
47772;SDS011;33534;51.028;13.716;2023-01-01T01:37:03;6.53;;;3.47;;
47772;SDS011;33534;51.028;13.716;2023-01-01T01:39:29;4.78;;;3.65;;
47772;SDS011;33534;51.028;13.716;2023-01-01T01:41:55;6.75;;;4.47;;
47772;SDS011;33534;51.028;13.716;2023-01-01T01:47:07;6.45;;;3.92;;
47772;SDS011;33534;51.028;13.716;2023-01-01T01:49:33;5.10;;;4.18;;
47772;SDS011;33534;51.028;13.716;2023-01-01T01:51:59;3.22;;;2.50;;
47772;SDS011;33534;51.028;13.716;2023-01-01T01:54:26;6.50;;;4.07;;
47772;SDS011;33534;51.028;13.716;2023-01-01T01:56:54;6.07;;;3.17;;
47772;SDS011;33534;51.028;13.716;2023-01-01T01:59:21;5.97;;;3.20;;
47772;SDS011;33534;51.028;13.716;2023-01-01T02:01:48;9.43;;;3.63;;
47772;SDS011;33534;51.028;13.716;2023-01-01T02:04:14;6.30;;;3.10;;
47772;SDS011;33534;51.028;13.716;2023-01-01T02:06:41;6.20;;;2.97;;
47772;SDS011;33534;51.028;13.716;2023-01-01T02:09:08;4.75;;;3.33;;
47772;SDS011;33534;51.028;13.716;2023-01-01T02:11:34;4.53;;;2.30;;
47772;SDS011;33534;51.028;13.716;2023-01-01T02:14:00;7.38;;;2.80;;
47772;SDS011;33534;51.028;13.716;2023-01-01T02:26:41;5.60;;;2.55;;
47772;SDS011;33534;51.028;13.716;2023-01-01T02:34:22;4.85;;;3.00;;
47772;SDS011;33534;51.028;13.716;2023-01-01T02:36:50;4.60;;;2.88;;
47772;SDS011;33534;51.028;13.716;2023-01-01T02:39:19;6.63;;;3.42;;
47772;SDS011;33534;51.028;13.716;2023-01-01T02:41:47;4.85;;;2.58;;
47772;SDS011;33534;51.028;13.716;2023-01-01T02:44:15;4.07;;;2.63;;
47772;SDS011;33534;51.028;13.716;2023-01-01T02:46:41;6.13;;;2.90;;
47772;SDS011;33534;51.028;13.716;2023-01-01T02:49:08;3.80;;;2.35;;
47772;SDS011;33534;51.028;13.716;2023-01-01T02:51:37;8.07;;;2.35;;
47772;SDS011;33534;51.028;13.716;2023-01-01T02:54:08;3.83;;;2.17;;
47772;SDS011;33534;51.028;13.716;2023-01-01T03:07:25;6.95;;;2.15;;
47772;SDS011;33534;51.028;13.716;2023-01-01T03:10:10;5.72;;;2.20;;
47772;SDS011;33534;51.028;13.716;2023-01-01T03:12:42;5.72;;;2.13;;
47772;SDS011;33534;51.028;13.716;2023-01-01T03:17:36;5.57;;;2.33;;
47772;SDS011;33534;51.028;13.716;2023-01-01T03:20:05;10.35;;;2.25;;
47772;SDS011;33534;51.028;13.716;2023-01-01T03:22:33;5.00;;;2.60;;
47772;SDS011;33534;51.028;13.716;2023-01-01T03:27:31;5.13;;;2.22;;
47772;SDS011;33534;51.028;13.716;2023-01-01T03:30:00;5.97;;;2.72;;
47772;SDS011;33534;51.028;13.716;2023-01-01T03:32:28;4.82;;;2.63;;
47772;SDS011;33534;51.028;13.716;2023-01-01T03:35:16;3.78;;;1.95;;
47772;SDS011;33534;51.028;13.716;2023-01-01T03:37:44;4.25;;;2.10;;
47772;SDS011;33534;51.028;13.716;2023-01-01T03:40:13;3.33;;;2.25;;
47772;SDS011;33534;51.028;13.716;2023-01-01T03:42:40;5.30;;;1.98;;
47772;SDS011;33534;51.028;13.716;2023-01-01T03:45:16;4.45;;;2.65;;
47772;SDS011;33534;51.028;13.716;2023-01-01T03:47:44;10.05;;;2.13;;
47772;SDS011;33534;51.028;13.716;2023-01-01T03:50:10;3.53;;;1.90;;
47772;SDS011;33534;51.028;13.716;2023-01-01T03:52:40;8.88;;;2.58;;
47772;SDS011;33534;51.028;13.716;2023-01-01T03:55:18;6.90;;;1.77;;
47772;SDS011;33534;51.028;13.716;2023-01-01T03:57:54;3.55;;;2.20;;
47772;SDS011;33534;51.028;13.716;2023-01-01T04:00:31;6.00;;;2.30;;
47772;SDS011;33534;51.028;13.716;2023-01-01T04:03:03;5.47;;;2.20;;
47772;SDS011;33534;51.028;13.716;2023-01-01T04:05:30;7.60;;;2.28;;
47772;SDS011;33534;51.028;13.716;2023-01-01T04:07:58;12.63;;;3.00;;
47772;SDS011;33534;51.028;13.716;2023-01-01T04:10:25;8.20;;;2.10;;
47772;SDS011;33534;51.028;13.716;2023-01-01T04:12:54;6.88;;;2.05;;
47772;SDS011;33534;51.028;13.716;2023-01-01T04:15:21;8.70;;;2.38;;
47772;SDS011;33534;51.028;13.716;2023-01-01T04:17:48;6.03;;;2.17;;
47772;SDS011;33534;51.028;13.716;2023-01-01T04:20:14;4.88;;;1.88;;
47772;SDS011;33534;51.028;13.716;2023-01-01T04:22:40;6.97;;;2.72;;
47772;SDS011;33534;51.028;13.716;2023-01-01T04:25:07;4.82;;;2.60;;
47772;SDS011;33534;51.028;13.716;2023-01-01T04:27:33;9.40;;;3.15;;
47772;SDS011;33534;51.028;13.716;2023-01-01T04:29:59;8.32;;;2.70;;
47772;SDS011;33534;51.028;13.716;2023-01-01T04:32:25;13.65;;;2.88;;
47772;SDS011;33534;51.028;13.716;2023-01-01T04:34:51;13.98;;;2.95;;
47772;SDS011;33534;51.028;13.716;2023-01-01T04:37:17;7.50;;;4.30;;
47772;SDS011;33534;51.028;13.716;2023-01-01T04:39:43;8.77;;;2.90;;
47772;SDS011;33534;51.028;13.716;2023-01-01T04:42:09;9.18;;;3.28;;
47772;SDS011;33534;51.028;13.716;2023-01-01T04:44:35;8.45;;;2.92;;
47772;SDS011;33534;51.028;13.716;2023-01-01T04:47:01;18.33;;;9.45;;
47772;SDS011;33534;51.028;13.716;2023-01-01T04:49:27;7.45;;;2.97;;
47772;SDS011;33534;51.028;13.716;2023-01-01T04:51:53;5.07;;;2.20;;
47772;SDS011;33534;51.028;13.716;2023-01-01T04:54:19;9.68;;;3.28;;
47772;SDS011;33534;51.028;13.716;2023-01-01T04:56:45;8.48;;;2.85;;
47772;SDS011;33534;51.028;13.716;2023-01-01T04:59:11;12.38;;;2.60;;
47772;SDS011;33534;51.028;13.716;2023-01-01T05:01:37;7.65;;;2.80;;
47772;SDS011;33534;51.028;13.716;2023-01-01T05:04:03;4.55;;;1.95;;
47772;SDS011;33534;51.028;13.716;2023-01-01T05:06:29;8.30;;;3.22;;
47772;SDS011;33534;51.028;13.716;2023-01-01T05:08:55;8.57;;;2.55;;
47772;SDS011;33534;51.028;13.716;2023-01-01T05:11:23;5.45;;;2.33;;
47772;SDS011;33534;51.028;13.716;2023-01-01T05:13:50;3.30;;;2.10;;
47772;SDS011;33534;51.028;13.716;2023-01-01T05:16:17;7.35;;;2.50;;
47772;SDS011;33534;51.028;13.716;2023-01-01T05:18:44;9.88;;;3.28;;
47772;SDS011;33534;51.028;13.716;2023-01-01T05:21:17;9.48;;;2.78;;
47772;SDS011;33534;51.028;13.716;2023-01-01T05:23:43;6.68;;;3.00;;
47772;SDS011;33534;51.028;13.716;2023-01-01T05:26:13;8.52;;;2.78;;
47772;SDS011;33534;51.028;13.716;2023-01-01T05:28:40;4.95;;;2.40;;
47772;SDS011;33534;51.028;13.716;2023-01-01T05:31:07;11.85;;;3.20;;
47772;SDS011;33534;51.028;13.716;2023-01-01T05:33:33;8.25;;;2.55;;
47772;SDS011;33534;51.028;13.716;2023-01-01T05:35:59;9.95;;;2.85;;
47772;SDS011;33534;51.028;13.716;2023-01-01T05:38:25;9.40;;;3.03;;
47772;SDS011;33534;51.028;13.716;2023-01-01T05:40:51;10.20;;;2.70;;
47772;SDS011;33534;51.028;13.716;2023-01-01T05:43:17;4.45;;;1.92;;
47772;SDS011;33534;51.028;13.716;2023-01-01T05:45:43;6.90;;;3.03;;
47772;SDS011;33534;51.028;13.716;2023-01-01T05:48:10;8.57;;;2.65;;
47772;SDS011;33534;51.028;13.716;2023-01-01T05:50:36;7.05;;;2.88;;
47772;SDS011;33534;51.028;13.716;2023-01-01T05:53:02;6.97;;;2.25;;
47772;SDS011;33534;51.028;13.716;2023-01-01T05:55:28;5.85;;;2.58;;
47772;SDS011;33534;51.028;13.716;2023-01-01T05:57:55;9.20;;;2.42;;
47772;SDS011;33534;51.028;13.716;2023-01-01T06:00:21;6.05;;;2.20;;
47772;SDS011;33534;51.028;13.716;2023-01-01T06:02:47;6.30;;;2.60;;
47772;SDS011;33534;51.028;13.716;2023-01-01T06:05:16;5.63;;;2.42;;
47772;SDS011;33534;51.028;13.716;2023-01-01T06:07:42;7.38;;;2.75;;
47772;SDS011;33534;51.028;13.716;2023-01-01T06:10:08;6.97;;;2.63;;
47772;SDS011;33534;51.028;13.716;2023-01-01T06:12:34;6.32;;;2.55;;
47772;SDS011;33534;51.028;13.716;2023-01-01T06:15:00;5.75;;;2.45;;
47772;SDS011;33534;51.028;13.716;2023-01-01T06:17:26;5.28;;;2.83;;
47772;SDS011;33534;51.028;13.716;2023-01-01T06:19:52;5.55;;;2.45;;
47772;SDS011;33534;51.028;13.716;2023-01-01T06:22:18;6.22;;;2.35;;
47772;SDS011;33534;51.028;13.716;2023-01-01T06:24:44;5.85;;;3.15;;
47772;SDS011;33534;51.028;13.716;2023-01-01T06:27:10;6.28;;;2.58;;
47772;SDS011;33534;51.028;13.716;2023-01-01T06:29:36;4.28;;;2.70;;
47772;SDS011;33534;51.028;13.716;2023-01-01T06:32:02;10.00;;;2.90;;
47772;SDS011;33534;51.028;13.716;2023-01-01T06:34:28;5.95;;;2.90;;
47772;SDS011;33534;51.028;13.716;2023-01-01T06:36:54;6.25;;;3.05;;
47772;SDS011;33534;51.028;13.716;2023-01-01T06:39:20;4.40;;;2.80;;
47772;SDS011;33534;51.028;13.716;2023-01-01T06:41:46;4.72;;;2.78;;
47772;SDS011;33534;51.028;13.716;2023-01-01T06:44:12;5.57;;;2.80;;
47772;SDS011;33534;51.028;13.716;2023-01-01T06:46:38;5.68;;;3.38;;
47772;SDS011;33534;51.028;13.716;2023-01-01T06:49:05;8.25;;;3.67;;
47772;SDS011;33534;51.028;13.716;2023-01-01T06:51:32;7.45;;;3.15;;
47772;SDS011;33534;51.028;13.716;2023-01-01T06:53:59;4.60;;;3.03;;
47772;SDS011;33534;51.028;13.716;2023-01-01T06:56:26;6.05;;;3.05;;
47772;SDS011;33534;51.028;13.716;2023-01-01T06:58:52;7.15;;;3.28;;
47772;SDS011;33534;51.028;13.716;2023-01-01T07:01:19;9.48;;;3.40;;
47772;SDS011;33534;51.028;13.716;2023-01-01T07:03:49;6.95;;;3.70;;
47772;SDS011;33534;51.028;13.716;2023-01-01T07:06:15;7.90;;;3.75;;
47772;SDS011;33534;51.028;13.716;2023-01-01T07:08:41;7.78;;;4.07;;
47772;SDS011;33534;51.028;13.716;2023-01-01T07:11:07;8.15;;;3.92;;
47772;SDS011;33534;51.028;13.716;2023-01-01T07:13:33;6.22;;;3.25;;
47772;SDS011;33534;51.028;13.716;2023-01-01T07:16:00;7.75;;;3.75;;
47772;SDS011;33534;51.028;13.716;2023-01-01T07:18:26;6.03;;;3.85;;
47772;SDS011;33534;51.028;13.716;2023-01-01T07:20:59;6.13;;;3.60;;
47772;SDS011;33534;51.028;13.716;2023-01-01T07:23:25;5.45;;;3.13;;
47772;SDS011;33534;51.028;13.716;2023-01-01T07:25:52;6.68;;;3.78;;
47772;SDS011;33534;51.028;13.716;2023-01-01T07:28:18;6.43;;;3.75;;
47772;SDS011;33534;51.028;13.716;2023-01-01T07:30:45;6.63;;;3.80;;
47772;SDS011;33534;51.028;13.716;2023-01-01T07:33:11;5.00;;;3.90;;
47772;SDS011;33534;51.028;13.716;2023-01-01T07:35:38;7.13;;;4.25;;
47772;SDS011;33534;51.028;13.716;2023-01-01T07:38:04;9.00;;;4.00;;
47772;SDS011;33534;51.028;13.716;2023-01-01T07:40:30;4.70;;;3.15;;
47772;SDS011;33534;51.028;13.716;2023-01-01T07:42:56;6.78;;;3.42;;
47772;SDS011;33534;51.028;13.716;2023-01-01T07:45:23;6.22;;;3.92;;
47772;SDS011;33534;51.028;13.716;2023-01-01T07:47:49;6.95;;;3.30;;
47772;SDS011;33534;51.028;13.716;2023-01-01T07:50:16;6.95;;;3.83;;
47772;SDS011;33534;51.028;13.716;2023-01-01T07:52:42;7.55;;;3.88;;
47772;SDS011;33534;51.028;13.716;2023-01-01T07:55:12;5.90;;;3.45;;
47772;SDS011;33534;51.028;13.716;2023-01-01T07:57:39;6.10;;;4.03;;
47772;SDS011;33534;51.028;13.716;2023-01-01T08:00:05;5.03;;;3.78;;
47772;SDS011;33534;51.028;13.716;2023-01-01T08:02:31;7.35;;;3.42;;
47772;SDS011;33534;51.028;13.716;2023-01-01T08:04:57;7.03;;;3.70;;
47772;SDS011;33534;51.028;13.716;2023-01-01T08:07:23;4.93;;;3.60;;
47772;SDS011;33534;51.028;13.716;2023-01-01T08:09:49;6.40;;;3.90;;
47772;SDS011;33534;51.028;13.716;2023-01-01T08:12:16;8.75;;;4.00;;
47772;SDS011;33534;51.028;13.716;2023-01-01T08:14:42;5.75;;;3.40;;
47772;SDS011;33534;51.028;13.716;2023-01-01T08:17:08;4.63;;;3.30;;
47772;SDS011;33534;51.028;13.716;2023-01-01T08:19:34;5.97;;;3.47;;
47772;SDS011;33534;51.028;13.716;2023-01-01T08:22:00;7.72;;;3.72;;
47772;SDS011;33534;51.028;13.716;2023-01-01T08:24:26;7.60;;;4.00;;
47772;SDS011;33534;51.028;13.716;2023-01-01T08:26:55;6.03;;;3.38;;
47772;SDS011;33534;51.028;13.716;2023-01-01T08:29:21;6.70;;;3.85;;
47772;SDS011;33534;51.028;13.716;2023-01-01T08:31:47;8.02;;;3.55;;
47772;SDS011;33534;51.028;13.716;2023-01-01T08:34:13;4.40;;;3.55;;
47772;SDS011;33534;51.028;13.716;2023-01-01T08:36:39;6.90;;;3.90;;
47772;SDS011;33534;51.028;13.716;2023-01-01T08:39:05;8.07;;;2.72;;
47772;SDS011;33534;51.028;13.716;2023-01-01T08:41:35;6.22;;;3.40;;
47772;SDS011;33534;51.028;13.716;2023-01-01T08:44:10;6.38;;;3.35;;
47772;SDS011;33534;51.028;13.716;2023-01-01T08:46:36;6.10;;;3.40;;
47772;SDS011;33534;51.028;13.716;2023-01-01T08:49:02;6.93;;;3.42;;
47772;SDS011;33534;51.028;13.716;2023-01-01T08:51:28;5.75;;;3.38;;
47772;SDS011;33534;51.028;13.716;2023-01-01T08:53:54;5.45;;;2.85;;
47772;SDS011;33534;51.028;13.716;2023-01-01T08:56:20;6.80;;;2.97;;
47772;SDS011;33534;51.028;13.716;2023-01-01T08:58:46;5.32;;;2.83;;
47772;SDS011;33534;51.028;13.716;2023-01-01T09:01:13;5.95;;;2.97;;
47772;SDS011;33534;51.028;13.716;2023-01-01T09:03:39;8.32;;;3.00;;
47772;SDS011;33534;51.028;13.716;2023-01-01T09:06:05;7.82;;;3.20;;
47772;SDS011;33534;51.028;13.716;2023-01-01T09:08:31;7.88;;;3.50;;
47772;SDS011;33534;51.028;13.716;2023-01-01T09:11:01;5.97;;;3.03;;
47772;SDS011;33534;51.028;13.716;2023-01-01T09:13:27;6.00;;;3.33;;
47772;SDS011;33534;51.028;13.716;2023-01-01T09:15:53;5.80;;;2.70;;
47772;SDS011;33534;51.028;13.716;2023-01-01T09:18:19;8.13;;;2.75;;
47772;SDS011;33534;51.028;13.716;2023-01-01T09:20:45;6.13;;;3.03;;
47772;SDS011;33534;51.028;13.716;2023-01-01T09:23:12;4.82;;;2.92;;
47772;SDS011;33534;51.028;13.716;2023-01-01T09:25:38;9.50;;;3.00;;
47772;SDS011;33534;51.028;13.716;2023-01-01T09:28:05;6.50;;;3.13;;
47772;SDS011;33534;51.028;13.716;2023-01-01T09:30:32;6.78;;;2.85;;
47772;SDS011;33534;51.028;13.716;2023-01-01T09:32:58;7.57;;;3.15;;
47772;SDS011;33534;51.028;13.716;2023-01-01T09:35:24;5.25;;;2.72;;
47772;SDS011;33534;51.028;13.716;2023-01-01T09:37:50;5.95;;;2.65;;
47772;SDS011;33534;51.028;13.716;2023-01-01T09:40:25;5.57;;;2.72;;
47772;SDS011;33534;51.028;13.716;2023-01-01T09:42:58;5.43;;;2.58;;
47772;SDS011;33534;51.028;13.716;2023-01-01T09:47:52;5.78;;;2.58;;
47772;SDS011;33534;51.028;13.716;2023-01-01T09:50:21;5.72;;;3.15;;
47772;SDS011;33534;51.028;13.716;2023-01-01T09:52:55;5.78;;;2.15;;
47772;SDS011;33534;51.028;13.716;2023-01-01T09:55:24;4.75;;;2.58;;
47772;SDS011;33534;51.028;13.716;2023-01-01T09:57:51;8.35;;;3.20;;
47772;SDS011;33534;51.028;13.716;2023-01-01T10:00:17;7.03;;;2.63;;
47772;SDS011;33534;51.028;13.716;2023-01-01T10:07:56;6.88;;;2.45;;
47772;SDS011;33534;51.028;13.716;2023-01-01T10:10:39;6.32;;;2.10;;
47772;SDS011;33534;51.028;13.716;2023-01-01T10:15:32;6.70;;;2.58;;
47772;SDS011;33534;51.028;13.716;2023-01-01T10:17:59;8.07;;;2.00;;
47772;SDS011;33534;51.028;13.716;2023-01-01T10:20:32;5.95;;;2.50;;
47772;SDS011;33534;51.028;13.716;2023-01-01T10:23:21;9.00;;;3.28;;
47772;SDS011;33534;51.028;13.716;2023-01-01T10:25:49;7.18;;;2.35;;
47772;SDS011;33534;51.028;13.716;2023-01-01T10:30:44;6.18;;;2.30;;
47772;SDS011;33534;51.028;13.716;2023-01-01T10:33:10;9.65;;;2.88;;
47772;SDS011;33534;51.028;13.716;2023-01-01T10:35:44;7.10;;;2.40;;
47772;SDS011;33534;51.028;13.716;2023-01-01T10:38:19;6.45;;;2.17;;
47772;SDS011;33534;51.028;13.716;2023-01-01T10:40:46;7.13;;;2.35;;
47772;SDS011;33534;51.028;13.716;2023-01-01T10:43:12;10.02;;;2.83;;
47772;SDS011;33534;51.028;13.716;2023-01-01T10:45:43;8.45;;;2.60;;
47772;SDS011;33534;51.028;13.716;2023-01-01T10:55:59;7.28;;;2.55;;
47772;SDS011;33534;51.028;13.716;2023-01-01T11:01:02;7.95;;;2.60;;
47772;SDS011;33534;51.028;13.716;2023-01-01T11:03:28;6.55;;;2.53;;
47772;SDS011;33534;51.028;13.716;2023-01-01T11:06:04;6.45;;;1.90;;
47772;SDS011;33534;51.028;13.716;2023-01-01T11:08:33;6.38;;;2.45;;
47772;SDS011;33534;51.028;13.716;2023-01-01T11:11:00;11.75;;;3.08;;
47772;SDS011;33534;51.028;13.716;2023-01-01T11:13:27;9.45;;;2.92;;
47772;SDS011;33534;51.028;13.716;2023-01-01T11:15:53;10.05;;;3.00;;
47772;SDS011;33534;51.028;13.716;2023-01-01T11:18:21;10.35;;;3.10;;
47772;SDS011;33534;51.028;13.716;2023-01-01T11:20:51;7.43;;;3.00;;
47772;SDS011;33534;51.028;13.716;2023-01-01T11:26:01;7.47;;;2.42;;
47772;SDS011;33534;51.028;13.716;2023-01-01T11:28:28;9.40;;;3.15;;
47772;SDS011;33534;51.028;13.716;2023-01-01T11:33:24;8.13;;;2.65;;
47772;SDS011;33534;51.028;13.716;2023-01-01T11:35:52;14.50;;;3.00;;
47772;SDS011;33534;51.028;13.716;2023-01-01T11:38:19;5.78;;;2.08;;
47772;SDS011;33534;51.028;13.716;2023-01-01T11:40:47;10.02;;;2.95;;
47772;SDS011;33534;51.028;13.716;2023-01-01T11:43:21;9.68;;;2.97;;
47772;SDS011;33534;51.028;13.716;2023-01-01T11:45:48;10.32;;;2.67;;
47772;SDS011;33534;51.028;13.716;2023-01-01T11:48:19;9.30;;;2.90;;
47772;SDS011;33534;51.028;13.716;2023-01-01T11:50:50;5.97;;;2.58;;
47772;SDS011;33534;51.028;13.716;2023-01-01T11:55:51;10.35;;;3.25;;
47772;SDS011;33534;51.028;13.716;2023-01-01T12:00:53;7.28;;;2.35;;
47772;SDS011;33534;51.028;13.716;2023-01-01T12:08:47;11.50;;;3.53;;
47772;SDS011;33534;51.028;13.716;2023-01-01T12:11:18;10.57;;;3.33;;
47772;SDS011;33534;51.028;13.716;2023-01-01T12:13:56;7.63;;;2.40;;
47772;SDS011;33534;51.028;13.716;2023-01-01T12:16:26;9.73;;;3.25;;
47772;SDS011;33534;51.028;13.716;2023-01-01T12:19:00;8.43;;;2.60;;
47772;SDS011;33534;51.028;13.716;2023-01-01T12:21:27;7.25;;;2.22;;
47772;SDS011;33534;51.028;13.716;2023-01-01T12:23:54;14.82;;;2.90;;
47772;SDS011;33534;51.028;13.716;2023-01-01T12:34:17;8.38;;;2.80;;
47772;SDS011;33534;51.028;13.716;2023-01-01T12:49:52;17.15;;;8.25;;
47772;SDS011;33534;51.028;13.716;2023-01-01T12:57:39;5.45;;;2.95;;
47772;SDS011;33534;51.028;13.716;2023-01-01T13:00:13;8.98;;;3.58;;
47772;SDS011;33534;51.028;13.716;2023-01-01T13:02:43;9.98;;;2.88;;
47772;SDS011;33534;51.028;13.716;2023-01-01T13:05:16;15.60;;;3.15;;
47772;SDS011;33534;51.028;13.716;2023-01-01T13:07:44;11.77;;;2.88;;
47772;SDS011;33534;51.028;13.716;2023-01-01T13:10:33;9.85;;;3.40;;
47772;SDS011;33534;51.028;13.716;2023-01-01T13:13:00;9.65;;;3.17;;
47772;SDS011;33534;51.028;13.716;2023-01-01T13:18:02;9.55;;;3.15;;
47772;SDS011;33534;51.028;13.716;2023-01-01T13:20:30;7.43;;;3.00;;
47772;SDS011;33534;51.028;13.716;2023-01-01T13:22:56;9.68;;;3.67;;
47772;SDS011;33534;51.028;13.716;2023-01-01T13:25:22;10.77;;;3.33;;
47772;SDS011;33534;51.028;13.716;2023-01-01T13:36:33;8.27;;;3.00;;
47772;SDS011;33534;51.028;13.716;2023-01-01T13:46:26;7.13;;;3.10;;
47772;SDS011;33534;51.028;13.716;2023-01-01T13:49:19;7.82;;;2.88;;
47772;SDS011;33534;51.028;13.716;2023-01-01T13:56:59;12.35;;;3.45;;
47772;SDS011;33534;51.028;13.716;2023-01-01T14:04:45;13.00;;;3.10;;
47772;SDS011;33534;51.028;13.716;2023-01-01T14:07:25;9.63;;;3.30;;
47772;SDS011;33534;51.028;13.716;2023-01-01T14:12:19;9.05;;;3.20;;
47772;SDS011;33534;51.028;13.716;2023-01-01T14:14:45;9.50;;;3.35;;
47772;SDS011;33534;51.028;13.716;2023-01-01T14:17:15;12.43;;;3.13;;
47772;SDS011;33534;51.028;13.716;2023-01-01T14:19:41;9.13;;;3.50;;
47772;SDS011;33534;51.028;13.716;2023-01-01T14:22:07;8.70;;;2.83;;
47772;SDS011;33534;51.028;13.716;2023-01-01T14:24:39;6.10;;;3.50;;
47772;SDS011;33534;51.028;13.716;2023-01-01T14:27:06;7.30;;;3.20;;
47772;SDS011;33534;51.028;13.716;2023-01-01T14:29:32;8.15;;;3.42;;
47772;SDS011;33534;51.028;13.716;2023-01-01T14:32:00;8.95;;;3.33;;
47772;SDS011;33534;51.028;13.716;2023-01-01T14:34:36;7.97;;;3.05;;
47772;SDS011;33534;51.028;13.716;2023-01-01T14:37:03;13.38;;;3.33;;
47772;SDS011;33534;51.028;13.716;2023-01-01T14:39:30;11.35;;;3.88;;
47772;SDS011;33534;51.028;13.716;2023-01-01T14:41:58;7.47;;;2.85;;
47772;SDS011;33534;51.028;13.716;2023-01-01T14:44:33;12.40;;;3.28;;
47772;SDS011;33534;51.028;13.716;2023-01-01T14:47:01;11.48;;;4.13;;
47772;SDS011;33534;51.028;13.716;2023-01-01T14:49:29;14.25;;;3.92;;
47772;SDS011;33534;51.028;13.716;2023-01-01T14:51:59;9.52;;;3.90;;
47772;SDS011;33534;51.028;13.716;2023-01-01T14:54:30;9.27;;;3.35;;
47772;SDS011;33534;51.028;13.716;2023-01-01T14:56:57;11.30;;;3.53;;
47772;SDS011;33534;51.028;13.716;2023-01-01T14:59:25;12.73;;;3.47;;
47772;SDS011;33534;51.028;13.716;2023-01-01T15:02:02;6.30;;;3.63;;
47772;SDS011;33534;51.028;13.716;2023-01-01T15:04:29;13.43;;;4.80;;
47772;SDS011;33534;51.028;13.716;2023-01-01T15:06:55;7.82;;;3.60;;
47772;SDS011;33534;51.028;13.716;2023-01-01T15:09:21;17.75;;;3.60;;
47772;SDS011;33534;51.028;13.716;2023-01-01T15:11:51;8.65;;;3.00;;
47772;SDS011;33534;51.028;13.716;2023-01-01T15:14:37;8.35;;;3.92;;
47772;SDS011;33534;51.028;13.716;2023-01-01T15:17:04;12.82;;;4.30;;
47772;SDS011;33534;51.028;13.716;2023-01-01T15:19:30;12.23;;;3.75;;
47772;SDS011;33534;51.028;13.716;2023-01-01T15:21:58;10.73;;;3.58;;
47772;SDS011;33534;51.028;13.716;2023-01-01T15:24:25;12.00;;;3.53;;
47772;SDS011;33534;51.028;13.716;2023-01-01T15:26:54;9.80;;;3.28;;
47772;SDS011;33534;51.028;13.716;2023-01-01T15:29:27;7.95;;;3.55;;
47772;SDS011;33534;51.028;13.716;2023-01-01T15:32:00;11.70;;;3.65;;
47772;SDS011;33534;51.028;13.716;2023-01-01T15:34:30;10.18;;;3.40;;
47772;SDS011;33534;51.028;13.716;2023-01-01T15:37:04;8.77;;;3.47;;
47772;SDS011;33534;51.028;13.716;2023-01-01T15:39:31;11.77;;;4.03;;
47772;SDS011;33534;51.028;13.716;2023-01-01T15:41:57;11.27;;;3.90;;
47772;SDS011;33534;51.028;13.716;2023-01-01T15:44:25;7.72;;;3.58;;
47772;SDS011;33534;51.028;13.716;2023-01-01T15:46:51;6.95;;;3.70;;
47772;SDS011;33534;51.028;13.716;2023-01-01T15:49:21;9.68;;;3.47;;
47772;SDS011;33534;51.028;13.716;2023-01-01T15:51:48;15.00;;;4.73;;
47772;SDS011;33534;51.028;13.716;2023-01-01T15:54:14;12.25;;;4.40;;
47772;SDS011;33534;51.028;13.716;2023-01-01T15:56:42;8.13;;;3.42;;
47772;SDS011;33534;51.028;13.716;2023-01-01T16:01:49;8.88;;;3.83;;
47772;SDS011;33534;51.028;13.716;2023-01-01T16:04:16;17.02;;;4.47;;
47772;SDS011;33534;51.028;13.716;2023-01-01T16:06:44;14.75;;;3.28;;
47772;SDS011;33534;51.028;13.716;2023-01-01T16:09:11;12.20;;;3.72;;
47772;SDS011;33534;51.028;13.716;2023-01-01T16:11:37;11.55;;;3.90;;
47772;SDS011;33534;51.028;13.716;2023-01-01T16:14:03;10.70;;;4.07;;
47772;SDS011;33534;51.028;13.716;2023-01-01T16:16:29;9.13;;;3.70;;
47772;SDS011;33534;51.028;13.716;2023-01-01T16:18:56;10.23;;;3.90;;
47772;SDS011;33534;51.028;13.716;2023-01-01T16:21:23;11.93;;;4.03;;
47772;SDS011;33534;51.028;13.716;2023-01-01T16:23:50;9.57;;;3.35;;
47772;SDS011;33534;51.028;13.716;2023-01-01T16:26:16;9.07;;;3.58;;
47772;SDS011;33534;51.028;13.716;2023-01-01T16:28:42;15.18;;;4.00;;
47772;SDS011;33534;51.028;13.716;2023-01-01T16:31:18;8.85;;;3.40;;
47772;SDS011;33534;51.028;13.716;2023-01-01T16:33:46;13.38;;;3.95;;
47772;SDS011;33534;51.028;13.716;2023-01-01T16:36:15;9.85;;;3.63;;
47772;SDS011;33534;51.028;13.716;2023-01-01T16:38:44;10.63;;;3.97;;
47772;SDS011;33534;51.028;13.716;2023-01-01T16:41:14;11.93;;;4.90;;
47772;SDS011;33534;51.028;13.716;2023-01-01T16:43:40;9.77;;;3.97;;
47772;SDS011;33534;51.028;13.716;2023-01-01T16:46:09;10.57;;;4.05;;
47772;SDS011;33534;51.028;13.716;2023-01-01T16:48:35;10.57;;;4.30;;